createdAt,value
2023-04-02T00:01:51.087Z,1.20
2023-04-02T00:04:37.631Z,1.20
2023-04-02T00:07:24.091Z,1.33
2023-04-02T00:10:10.550Z,1.57
2023-04-02T00:12:57.025Z,1.60
2023-04-02T00:15:43.475Z,1.57
2023-04-02T00:18:29.992Z,1.50
2023-04-02T00:21:16.536Z,1.70
2023-04-02T00:24:02.994Z,1.70
2023-04-02T00:26:49.489Z,1.40
2023-04-02T00:29:35.948Z,1.60
2023-04-02T00:32:22.440Z,1.60
2023-04-02T00:35:08.891Z,1.80
2023-04-02T00:37:55.359Z,1.47
2023-04-02T00:40:41.882Z,1.40
2023-04-02T00:43:28.342Z,1.50
2023-04-02T00:46:14.852Z,1.73
2023-04-02T00:49:01.365Z,1.50
2023-04-02T00:51:47.849Z,1.47
2023-04-02T00:54:34.575Z,1.70
2023-04-02T00:57:21.060Z,1.73
2023-04-02T01:00:07.629Z,1.50
2023-04-02T01:02:54.195Z,1.70
2023-04-02T01:05:40.706Z,1.70
2023-04-02T01:08:27.244Z,1.47
2023-04-02T01:11:13.954Z,2.10
2023-04-02T01:14:00.403Z,1.70
2023-04-02T01:16:47.896Z,1.80
2023-04-02T01:19:34.428Z,1.63
2023-04-02T01:22:20.927Z,1.93
2023-04-02T01:25:07.409Z,1.60
2023-04-02T01:27:53.890Z,1.50
2023-04-02T01:30:40.398Z,1.60
2023-04-02T01:33:26.886Z,1.63
2023-04-02T01:36:13.371Z,1.30
2023-04-02T01:38:59.847Z,1.90
2023-04-02T01:41:47.328Z,1.90
2023-04-02T01:44:33.779Z,2.20
2023-04-02T01:47:20.252Z,1.90
2023-04-02T01:50:06.702Z,1.50
2023-04-02T01:52:54.161Z,1.63
2023-04-02T01:55:40.672Z,1.60
2023-04-02T01:58:27.154Z,1.90
2023-04-02T02:01:13.692Z,1.70
2023-04-02T02:04:00.244Z,2.10
2023-04-02T02:06:46.716Z,1.60
2023-04-02T02:09:33.197Z,1.60
2023-04-02T02:12:19.697Z,1.77
2023-04-02T02:15:06.169Z,2.10
2023-04-02T02:17:52.752Z,2.10
2023-04-02T02:20:39.276Z,1.90
2023-04-02T02:23:25.791Z,1.80
2023-04-02T02:26:12.256Z,1.80
2023-04-02T02:28:58.726Z,1.73
2023-04-02T02:31:45.202Z,1.90
2023-04-02T02:34:31.716Z,1.60
2023-04-02T02:37:18.181Z,2.00
2023-04-02T02:40:04.724Z,1.50
2023-04-02T02:42:51.204Z,1.57
2023-04-02T02:45:37.930Z,1.63
2023-04-02T02:48:24.573Z,1.77
2023-04-02T02:51:11.734Z,2.40
2023-04-02T02:54:01.229Z,1.57
2023-04-02T02:56:47.705Z,2.00
2023-04-02T02:59:34.200Z,1.70
2023-04-02T03:02:20.720Z,1.60
2023-04-02T03:05:07.281Z,2.00
2023-04-02T03:07:54.763Z,1.80
2023-04-02T03:10:41.258Z,2.10
2023-04-02T03:13:27.764Z,1.50
2023-04-02T03:16:14.249Z,1.60
2023-04-02T03:19:00.782Z,1.70
2023-04-02T03:21:47.238Z,1.70
2023-04-02T03:24:33.730Z,1.60
2023-04-02T03:27:20.222Z,1.90
2023-04-02T03:30:06.685Z,1.70
2023-04-02T03:32:53.292Z,1.60
2023-04-02T03:35:40.850Z,1.70
2023-04-02T03:38:27.348Z,1.80
2023-04-02T03:41:14.825Z,2.00
2023-04-02T03:44:01.318Z,2.20
2023-04-02T03:46:47.896Z,2.40
2023-04-02T03:49:34.468Z,2.00
2023-04-02T03:52:20.953Z,2.23
2023-04-02T03:55:07.417Z,1.70
2023-04-02T03:57:53.897Z,2.13
2023-04-02T04:00:40.357Z,2.10
2023-04-02T04:03:27.835Z,1.90
2023-04-02T04:06:14.328Z,1.90
2023-04-02T04:09:00.782Z,2.00
2023-04-02T04:11:47.260Z,2.03
2023-04-02T04:14:33.780Z,2.13
2023-04-02T04:17:20.231Z,2.07
2023-04-02T04:20:06.716Z,2.33
2023-04-02T04:22:53.204Z,2.07
2023-04-02T04:25:39.699Z,2.00
2023-04-02T04:28:26.163Z,2.50
2023-04-02T04:31:12.654Z,2.07
2023-04-02T04:33:59.124Z,2.60
2023-04-02T04:36:45.619Z,2.67
2023-04-02T04:39:32.093Z,2.20
2023-04-02T04:42:18.629Z,2.43
2023-04-02T04:45:05.104Z,2.87
2023-04-02T04:47:51.651Z,2.67
2023-04-02T04:50:38.260Z,3.10
2023-04-02T04:53:24.755Z,2.80
2023-04-02T04:56:18.949Z,2.57
2023-04-02T04:59:05.925Z,3.60
2023-04-02T05:01:52.518Z,3.30
2023-04-02T05:04:40.194Z,2.97
2023-04-02T05:07:26.872Z,5.93
2023-04-02T05:10:13.332Z,2.57
2023-04-02T05:13:01.299Z,3.43
2023-04-02T05:15:47.810Z,2.40
2023-04-02T05:18:34.325Z,2.60
2023-04-02T05:21:20.771Z,2.30
2023-04-02T05:24:07.246Z,2.40
2023-04-02T05:26:53.727Z,2.30
2023-04-02T05:29:40.179Z,2.40
2023-04-02T05:32:26.677Z,2.37
2023-04-02T05:35:13.167Z,2.70
2023-04-02T05:37:59.626Z,14.00
2023-04-02T05:40:46.124Z,4.20
2023-04-02T05:43:32.580Z,2.70
2023-04-02T05:46:19.101Z,2.67
2023-04-02T05:49:05.616Z,2.63
2023-04-02T05:51:52.091Z,3.10
2023-04-02T05:54:39.539Z,3.10
2023-04-02T05:57:39.487Z,3.00
2023-04-02T06:00:28.488Z,2.10
2023-04-02T06:03:15.031Z,7.10
2023-04-02T06:06:01.606Z,3.00
2023-04-02T06:08:49.108Z,2.23
2023-04-02T06:11:35.592Z,4.03
2023-04-02T06:14:22.050Z,7.50
2023-04-02T06:17:08.523Z,3.67
2023-04-02T06:19:54.975Z,2.00
2023-04-02T06:22:41.464Z,2.00
2023-04-02T06:25:27.999Z,1.80
2023-04-02T06:28:14.462Z,1.90
2023-04-02T06:31:00.992Z,1.73
2023-04-02T06:33:47.544Z,1.80
2023-04-02T06:36:34.009Z,2.47
2023-04-02T06:39:20.509Z,1.80
2023-04-02T06:42:08.003Z,1.60
2023-04-02T06:44:54.488Z,2.67
2023-04-02T06:47:40.989Z,1.60
2023-04-02T06:50:28.496Z,1.80
2023-04-02T06:53:14.988Z,1.57
2023-04-02T06:56:01.465Z,1.60
2023-04-02T06:58:47.946Z,1.50
2023-04-02T07:01:34.442Z,1.63
2023-04-02T07:04:21.963Z,1.50
2023-04-02T07:07:08.620Z,1.30
2023-04-02T07:09:55.124Z,1.50
2023-04-02T07:12:41.607Z,1.90
2023-04-02T07:15:29.086Z,1.23
2023-04-02T07:18:15.680Z,1.30
2023-04-02T07:21:02.158Z,1.30
2023-04-02T07:23:48.676Z,2.17
2023-04-02T07:26:35.308Z,1.13
2023-04-02T07:29:21.782Z,1.20
2023-04-02T07:32:08.242Z,1.30
2023-04-02T07:34:54.772Z,1.20
2023-04-02T07:37:41.249Z,1.07
2023-04-02T07:40:27.889Z,1.40
2023-04-02T08:08:42.231Z,0.30
2023-04-02T08:11:08.832Z,0.40
2023-04-02T08:13:35.297Z,0.53
2023-04-02T08:16:01.788Z,0.37
2023-04-02T08:24:00.378Z,0.30
2023-04-02T08:28:09.466Z,0.30
2023-04-02T08:30:55.985Z,0.30
2023-04-02T08:33:42.606Z,0.40
2023-04-02T08:36:29.116Z,0.20
2023-04-02T08:39:15.607Z,0.50
2023-04-02T08:42:02.090Z,0.70
2023-04-02T08:44:48.554Z,0.40
2023-04-02T08:47:36.144Z,0.47
2023-04-02T08:50:22.614Z,0.40
2023-04-02T08:53:10.148Z,1.10
2023-04-02T08:55:56.616Z,1.00
2023-04-02T08:58:43.161Z,0.80
2023-04-02T09:01:29.628Z,0.80
2023-04-02T09:04:16.187Z,1.30
2023-04-02T09:07:02.673Z,0.60
2023-04-02T09:09:49.237Z,0.87
2023-04-02T09:12:35.699Z,0.77
2023-04-02T09:15:23.255Z,0.70
2023-04-02T09:18:09.729Z,0.30
2023-04-02T09:20:56.368Z,0.60
2023-04-02T09:23:42.819Z,0.50
2023-04-02T09:26:29.299Z,0.40
2023-04-02T09:29:15.761Z,0.60
2023-04-02T09:32:02.304Z,0.30
2023-04-02T09:34:48.960Z,0.40
2023-04-02T09:37:35.408Z,0.43
2023-04-02T09:40:21.885Z,0.20
2023-04-02T09:43:08.369Z,0.20
2023-04-02T09:45:54.949Z,0.50
2023-04-02T09:48:41.436Z,0.30
2023-04-02T09:51:30.010Z,0.50
2023-04-02T09:54:16.493Z,0.30
2023-04-02T09:57:03.135Z,0.30
2023-04-02T09:59:49.632Z,0.30
2023-04-02T10:02:38.157Z,0.30
2023-04-02T10:05:39.376Z,0.50
2023-04-02T10:08:29.405Z,0.23
2023-04-02T10:11:15.873Z,0.30
2023-04-02T10:14:02.480Z,0.20
2023-04-02T10:16:49.034Z,0.40
2023-04-02T10:19:35.660Z,0.10
2023-04-02T10:22:22.127Z,0.30
2023-04-02T10:25:08.657Z,0.30
2023-04-02T10:27:55.134Z,0.30
2023-04-02T10:30:41.833Z,0.20
2023-04-02T10:33:28.351Z,0.20
2023-04-02T10:36:14.881Z,0.30
2023-04-02T10:39:01.392Z,0.10
2023-04-02T10:41:48.986Z,0.20
2023-04-02T10:44:35.448Z,0.10
2023-04-02T10:47:21.981Z,0.23
2023-04-02T10:50:08.457Z,0.10
2023-04-02T10:53:01.530Z,0.20
2023-04-02T10:55:48.012Z,0.20
2023-04-02T10:58:35.555Z,0.10
2023-04-02T11:01:22.021Z,0.20
2023-04-02T11:04:08.559Z,0.10
2023-04-02T11:07:07.245Z,0.10
2023-04-02T11:09:58.140Z,0.10
2023-04-02T11:12:44.616Z,0.20
2023-04-02T11:15:31.220Z,0.10
2023-04-02T11:18:17.685Z,0.20
2023-04-02T11:21:04.186Z,0.17
2023-04-02T11:23:50.644Z,0.30
2023-04-02T11:26:37.127Z,0.10
2023-04-02T11:29:23.600Z,0.10
2023-04-02T11:32:10.122Z,0.10
2023-04-02T11:35:06.432Z,0.20
2023-04-02T11:37:53.838Z,0.30
2023-04-02T11:40:40.351Z,0.20
2023-04-02T11:43:26.839Z,0.20
2023-04-02T11:46:13.475Z,0.20
2023-04-02T11:48:59.982Z,0.10
2023-04-02T11:51:46.566Z,0.10
2023-04-02T11:54:33.110Z,0.10
2023-04-02T11:57:21.463Z,0.20
2023-04-02T12:00:08.166Z,0.10
2023-04-02T12:02:54.747Z,0.20
2023-04-02T12:05:42.415Z,0.27
2023-04-02T12:08:28.925Z,0.20
2023-04-02T12:11:17.462Z,0.20
2023-04-02T12:14:03.950Z,0.10
2023-04-02T12:16:50.494Z,0.23
2023-04-02T12:19:36.965Z,0.20
2023-04-02T12:22:28.469Z,0.20
2023-04-02T12:25:14.938Z,0.20
2023-04-02T12:28:01.424Z,0.10
2023-04-02T12:30:47.934Z,0.20
2023-04-02T12:33:34.461Z,0.30
2023-04-02T12:36:21.084Z,0.23
2023-04-02T12:39:07.762Z,0.20
2023-04-02T12:41:54.225Z,0.20
2023-04-02T12:44:40.723Z,0.20
2023-04-02T12:47:27.283Z,0.20
2023-04-02T12:50:13.851Z,0.20
2023-04-02T12:53:00.331Z,0.20
2023-04-02T12:55:46.843Z,0.20
2023-04-02T12:58:33.312Z,0.30
2023-04-02T13:01:19.900Z,0.20
2023-04-02T13:04:06.566Z,0.20
2023-04-02T13:06:53.061Z,0.20
2023-04-02T13:09:40.556Z,0.27
2023-04-02T13:12:27.034Z,0.20
2023-04-02T13:15:13.491Z,0.10
2023-04-02T13:18:01.055Z,0.20
2023-04-02T13:20:47.539Z,0.23
2023-04-02T13:23:34.094Z,0.10
2023-04-02T13:26:20.568Z,0.10
2023-04-02T13:29:07.069Z,0.23
2023-04-02T13:31:53.609Z,0.10
2023-04-02T13:34:40.093Z,0.20
2023-04-02T13:40:40.670Z,0.20
2023-04-02T13:43:28.241Z,0.20
2023-04-02T13:46:14.839Z,0.10
2023-04-02T13:49:01.442Z,0.20
2023-04-02T13:51:47.918Z,0.10
2023-04-02T13:54:34.430Z,0.20
2023-04-02T13:57:20.992Z,0.20
2023-04-02T14:00:07.506Z,0.20
2023-04-02T14:02:54.084Z,0.20
2023-04-02T14:05:40.593Z,0.10
2023-04-02T14:08:27.113Z,0.20
2023-04-02T14:11:13.576Z,0.10
2023-04-02T14:14:00.122Z,0.10
2023-04-02T14:16:46.662Z,0.10
2023-04-02T14:19:34.239Z,0.20
2023-04-02T14:22:20.707Z,0.23
2023-04-02T14:25:07.236Z,0.20
2023-04-02T14:27:53.698Z,0.10
2023-04-02T14:30:46.581Z,0.10
2023-04-02T14:33:33.069Z,0.20
2023-04-02T14:36:19.660Z,0.13
2023-04-02T14:39:06.126Z,0.20
2023-04-02T14:41:52.620Z,0.20
2023-04-02T14:44:39.109Z,0.10
2023-04-02T14:47:25.678Z,0.10
2023-04-02T14:50:12.251Z,0.20
2023-04-02T14:52:58.729Z,0.20
2023-04-02T14:55:45.250Z,0.20
2023-04-02T14:58:31.726Z,0.20
2023-04-02T15:01:18.279Z,0.13
2023-04-02T15:04:04.822Z,0.10
2023-04-02T15:06:51.451Z,0.10
2023-04-02T15:09:37.933Z,0.20
2023-04-02T15:12:26.504Z,0.20
2023-04-02T15:15:12.981Z,0.20
2023-04-02T15:17:59.499Z,0.20
2023-04-02T15:20:48.138Z,0.20
2023-04-02T15:23:34.608Z,0.20
2023-04-02T15:26:21.119Z,0.20
2023-04-02T15:29:09.282Z,0.10
2023-04-02T15:32:01.823Z,0.20
2023-04-02T15:34:48.299Z,0.40
2023-04-02T15:37:35.823Z,1.00
2023-04-02T15:40:22.385Z,0.50
2023-04-02T15:43:08.947Z,0.47
2023-04-02T15:45:55.475Z,0.50
2023-04-02T15:48:41.991Z,0.40
2023-04-02T15:51:31.590Z,0.33
2023-04-02T15:54:18.078Z,0.50
2023-04-02T15:57:04.573Z,0.50
2023-04-02T16:03:04.236Z,0.40
2023-04-02T16:05:50.712Z,0.47
2023-04-02T16:12:00.753Z,0.27
2023-04-02T16:14:47.241Z,0.33
2023-04-02T16:17:33.846Z,0.40
2023-04-02T16:20:20.453Z,0.40
2023-04-02T16:23:07.069Z,0.40
2023-04-02T16:29:07.908Z,0.60
2023-04-02T16:31:54.382Z,0.43
2023-04-02T16:34:40.841Z,0.20
2023-04-02T16:37:28.397Z,0.30
2023-04-02T16:40:14.867Z,0.50
2023-04-02T16:43:01.373Z,0.30
2023-04-02T16:45:47.870Z,0.30
2023-04-02T16:48:35.403Z,0.50
2023-04-02T16:51:21.882Z,0.30
2023-04-02T16:54:08.370Z,0.50
2023-04-02T16:56:54.896Z,0.53
2023-04-02T16:59:41.369Z,0.60
2023-04-02T17:02:27.929Z,0.40
2023-04-02T17:05:14.476Z,0.47
2023-04-02T17:08:00.982Z,0.40
2023-04-02T17:10:47.446Z,0.60
2023-04-02T17:13:33.978Z,0.50
2023-04-02T17:16:20.482Z,0.50
2023-04-02T17:24:41.356Z,0.80
2023-04-02T17:31:21.810Z,1.00
2023-04-02T17:34:08.332Z,1.30
2023-04-02T17:36:54.861Z,1.17
2023-04-02T17:39:41.327Z,1.30
2023-04-02T17:42:27.812Z,1.20
2023-04-02T17:45:14.312Z,1.33
2023-04-02T17:48:00.829Z,1.30
2023-04-02T17:50:47.420Z,1.40
2023-04-02T17:53:33.992Z,1.67
2023-04-02T17:56:20.440Z,1.50
2023-04-02T17:59:06.941Z,1.63
2023-04-02T18:01:53.405Z,1.70
2023-04-02T18:04:39.866Z,2.00
2023-04-02T18:07:26.344Z,2.70
2023-04-02T18:10:12.910Z,2.80
2023-04-02T18:12:59.364Z,2.40
2023-04-02T18:15:45.845Z,1.90
2023-04-02T18:18:32.315Z,2.20
2023-04-02T18:21:18.767Z,2.07
2023-04-02T18:24:06.350Z,2.40
2023-04-02T18:26:52.799Z,2.20
2023-04-02T18:29:39.283Z,2.03
2023-04-02T18:32:25.769Z,2.03
2023-04-02T18:35:17.244Z,2.20
2023-04-02T18:38:03.700Z,2.23
